Time;durP1;ratioP1;P1;durP2;ratioP2;P2;SDS_P1;SDS_P2;PMS_P1;PMS_P2;Temp;Humidity;BMP_temperature;BMP_pressure;BME280_temperature;BME280_humidity;BME280_pressure;Samples;Min_cycle;Max_cycle;Signal;HPM_P1;HPM_P2
2022/01/22 00:02:16;;;;;;;12.63;11.40;;;;;;;5.23;45.12;102530.03;5033782;28;20827;-43
2022/01/22 00:04:46;;;;;;;12.53;11.23;;;;;;;5.21;45.54;102537.25;5033849;28;20487;-46
2022/01/22 00:07:14;;;;;;;11.57;10.60;;;;;;;5.17;48.67;102541.09;5033541;28;20440;-46
2022/01/22 00:09:52;;;;;;;12.10;10.93;;;;;;;5.15;50.00;102550.94;5033384;28;20472;-43
2022/01/22 00:12:40;;;;;;;13.90;11.47;;;;;;;5.13;48.78;102550.22;5035585;28;20456;-45
2022/01/22 00:15:10;;;;;;;12.07;11.07;;;;;;;5.12;48.74;102553.81;5047957;28;20482;-45
2022/01/22 00:17:38;;;;;;;13.23;11.90;;;;;;;5.12;47.57;102551.16;5053615;28;20442;-43
2022/01/22 00:20:09;;;;;;;10.73;10.00;;;;;;;5.10;48.48;102550.47;5052992;28;20464;-43
2022/01/22 00:22:37;;;;;;;13.00;10.60;;;;;;;5.06;49.34;102552.50;5053540;28;20459;-43
2022/01/22 00:25:08;;;;;;;15.87;10.47;;;;;;;5.01;50.47;102550.22;5053289;28;20444;-47
2022/01/22 00:27:38;;;;;;;11.23;10.23;;;;;;;5.00;51.37;102551.16;5053252;28;20416;-43
2022/01/22 00:30:07;;;;;;;12.47;11.30;;;;;;;4.95;52.30;102544.53;5052729;28;20467;-46
2022/01/22 00:32:35;;;;;;;12.77;11.53;;;;;;;4.96;50.38;102540.91;5053464;28;20495;-44
2022/01/22 00:35:04;;;;;;;13.60;10.87;;;;;;;4.97;49.91;102543.47;5053255;28;20810;-43
2022/01/22 00:37:35;;;;;;;13.80;11.13;;;;;;;4.99;48.64;102543.31;5053052;28;20424;-44
2022/01/22 00:40:03;;;;;;;14.13;12.57;;;;;;;5.00;49.37;102540.59;5052634;28;20470;-47
2022/01/22 00:42:33;;;;;;;12.50;11.23;;;;;;;5.05;49.72;102532.28;5052893;28;20978;-43
2022/01/22 00:45:01;;;;;;;18.17;11.93;;;;;;;5.06;51.21;102541.06;5052856;28;21234;-43
2022/01/22 00:47:29;;;;;;;14.80;11.50;;;;;;;5.05;51.82;102544.69;5052821;28;20424;-45
2022/01/22 00:49:56;;;;;;;16.07;11.77;;;;;;;5.07;51.31;102543.59;5052541;28;20466;-47
2022/01/22 00:52:24;;;;;;;18.30;13.40;;;;;;;5.06;51.34;102549.00;5052829;28;20470;-45
2022/01/22 00:54:53;;;;;;;15.63;12.73;;;;;;;5.01;51.52;102546.72;5051880;28;20446;-44
2022/01/22 00:57:21;;;;;;;13.37;12.07;;;;;;;5.02;47.34;102556.31;5052680;28;20477;-44
2022/01/22 00:59:49;;;;;;;20.87;13.90;;;;;;;5.01;44.36;102562.59;5052183;28;20880;-47
2022/01/22 01:02:16;;;;;;;15.23;13.53;;;;;;;5.01;41.51;102565.22;5052423;28;20460;-43
2022/01/22 01:04:44;;;;;;;15.70;12.80;;;;;;;5.03;39.46;102580.00;5052603;28;20431;-43
2022/01/22 01:07:12;;;;;;;13.93;12.43;;;;;;;5.04;40.46;102570.28;5052325;28;20424;-45
2022/01/22 01:09:40;;;;;;;14.13;12.70;;;;;;;5.05;40.35;102573.78;5051946;28;20466;-44
2022/01/22 01:12:12;;;;;;;17.30;13.90;;;;;;;5.05;40.54;102584.34;5052341;28;20451;-44
2022/01/22 01:14:45;;;;;;;18.10;12.70;;;;;;;5.04;40.46;102583.50;5052563;28;20446;-44
2022/01/22 01:17:34;;;;;;;15.50;12.30;;;;;;;5.04;40.84;102580.84;5052304;28;20475;-43
2022/01/22 01:33:54;;;;;;;14.70;13.40;;;;;;;5.05;41.55;102613.44;5052228;28;20473;-43
2022/01/22 01:36:22;;;;;;;16.60;13.20;;;;;;;5.09;41.24;102612.22;5051898;28;20471;-46
2022/01/22 01:38:54;;;;;;;17.53;12.80;;;;;;;5.11;41.13;102616.44;5051291;28;21046;-43
2022/01/22 01:41:29;;;;;;;13.63;12.30;;;;;;;5.13;41.50;102614.53;5052212;28;20447;-45
2022/01/22 01:43:58;;;;;;;24.17;13.50;;;;;;;5.16;42.98;102609.03;5051905;28;20431;-44
2022/01/22 01:46:29;;;;;;;14.17;12.80;;;;;;;5.18;43.76;102615.03;5051850;28;20459;-43
2022/01/22 01:48:57;;;;;;;16.50;13.03;;;;;;;5.15;47.26;102622.34;5051261;28;20876;-45
2022/01/22 01:51:29;;;;;;;20.10;12.93;;;;;;;5.11;48.14;102620.91;5051646;28;20451;-45
2022/01/22 01:54:02;;;;;;;18.23;12.53;;;;;;;5.10;48.20;102619.22;5051815;28;20967;-43
2022/01/22 01:59:17;;;;;;;13.87;12.50;;;;;;;5.08;50.65;102632.53;5051203;28;20799;-48
2022/01/22 02:01:45;;;;;;;16.00;11.57;;;;;;;5.05;52.09;102630.13;5051416;28;20956;-44
2022/01/22 02:04:14;;;;;;;13.83;12.20;;;;;;;5.07;51.40;102635.31;5051892;28;20855;-43
2022/01/22 02:06:42;;;;;;;20.40;13.93;;;;;;;5.08;53.06;102639.66;5051551;28;20424;-46
2022/01/22 02:09:10;;;;;;;18.97;13.67;;;;;;;5.07;52.85;102635.31;5051122;28;20466;-43
2022/01/22 02:11:40;;;;;;;21.10;13.40;;;;;;;5.07;53.33;102630.88;5051475;28;20461;-46
2022/01/22 02:23:29;;;;;;;18.70;13.03;;;;;;;5.06;54.61;102637.09;5051580;28;20440;-43
2022/01/22 02:25:15;;;;;;;22.33;14.17;;;;;;;4.98;56.13;102645.63;5051531;28;20437;-42
2022/01/22 02:27:42;;;;;;;16.73;12.50;;;;;;;5.00;56.12;102658.72;5051264;28;20916;-48
2022/01/22 02:30:17;;;;;;;17.00;13.53;;;;;;;5.01;53.87;102663.91;5051199;28;20443;-44
2022/01/22 02:33:03;;;;;;;14.37;12.20;;;;;;;5.04;53.38;102657.53;5051328;28;20477;-44
2022/01/22 02:35:36;;;;;;;20.27;13.13;;;;;;;5.06;52.78;102654.75;5051375;28;20427;-45
2022/01/22 02:38:12;;;;;;;14.70;12.53;;;;;;;5.07;54.07;102670.53;5050909;28;20467;-44
2022/01/22 02:40:44;;;;;;;17.50;13.87;;;;;;;5.09;53.45;102670.41;5051662;28;20787;-44
2022/01/22 02:43:12;;;;;;;13.80;12.70;;;;;;;5.10;52.76;102665.00;5050761;28;21002;-42
2022/01/22 02:45:41;;;;;;;14.00;12.80;;;;;;;5.13;52.80;102669.22;5051141;28;20514;-43
2022/01/22 02:48:08;;;;;;;13.40;12.20;;;;;;;5.17;51.88;102670.69;5050809;28;20451;-48
2022/01/22 02:50:36;;;;;;;17.77;14.33;;;;;;;5.19;52.39;102666.13;5051151;28;20442;-43
2022/01/22 02:53:04;;;;;;;15.23;13.60;;;;;;;5.23;52.05;102670.22;5051078;28;20461;-45
2022/01/22 02:55:33;;;;;;;14.90;13.43;;;;;;;5.25;52.63;102674.44;5051482;28;20428;-44
2022/01/22 02:58:02;;;;;;;19.13;14.00;;;;;;;5.25;53.14;102671.81;5050287;28;20843;-46
2022/01/22 03:00:31;;;;;;;18.57;13.77;;;;;;;5.25;54.15;102670.97;5051222;28;20424;-43
2022/01/22 03:02:59;;;;;;;17.20;14.70;;;;;;;5.26;53.49;102665.53;5051414;28;20447;-43
2022/01/22 03:05:26;;;;;;;15.53;13.70;;;;;;;5.28;53.09;102670.72;5051126;28;20431;-45
2022/01/22 03:07:56;;;;;;;20.27;14.57;;;;;;;5.27;55.18;102661.09;5050386;28;20431;-44
2022/01/22 03:10:26;;;;;;;16.77;14.30;;;;;;;5.27;54.54;102658.44;5050951;28;20423;-44
2022/01/22 03:13:15;;;;;;;18.00;14.80;;;;;;;5.25;57.25;102663.03;5051315;28;20458;-44
2022/01/22 03:16:02;;;;;;;28.73;15.30;;;;;;;5.23;56.21;102665.75;5051071;28;20432;-43
2022/01/22 03:18:46;;;;;;;15.80;14.30;;;;;;;5.19;56.33;102658.19;5051560;28;20471;-45
2022/01/22 03:21:35;;;;;;;15.87;14.27;;;;;;;5.19;55.47;102650.25;5054807;28;20448;-43
2022/01/22 03:29:37;;;;;;;16.37;14.60;;;;;;;5.20;53.45;102655.41;5053858;28;20469;-45
2022/01/22 03:32:08;;;;;;;19.93;15.77;;;;;;;5.21;53.92;102670.34;5054417;28;20455;-42
2022/01/22 03:34:41;;;;;;;17.50;15.80;;;;;;;5.23;53.43;102664.91;5054448;28;20435;-46
2022/01/22 03:37:09;;;;;;;17.27;15.87;;;;;;;5.25;52.86;102676.25;5054110;28;20498;-43
2022/01/22 03:39:37;;;;;;;16.80;15.23;;;;;;;5.27;53.10;102674.31;5053715;28;20471;-41
2022/01/22 03:42:05;;;;;;;17.37;15.70;;;;;;;5.28;52.91;102671.56;5054110;28;20451;-46
2022/01/22 03:44:33;;;;;;;17.77;16.00;;;;;;;5.32;52.26;102680.09;5054016;28;20432;-43
2022/01/22 03:47:02;;;;;;;36.73;16.50;;;;;;;5.32;53.15;102683.59;5054078;28;20434;-43
2022/01/22 03:49:29;;;;;;;24.20;15.30;;;;;;;5.35;53.48;102677.22;5053488;28;20992;-44
2022/01/22 03:51:57;;;;;;;22.37;15.70;;;;;;;5.35;53.73;102672.78;5053943;28;20825;-43
2022/01/22 03:54:26;;;;;;;23.03;16.63;;;;;;;5.36;54.42;102673.63;5054222;28;20440;-45
2022/01/22 03:56:53;;;;;;;18.40;16.67;;;;;;;5.36;55.05;102674.47;5054041;28;20484;-46
2022/01/22 03:59:21;;;;;;;25.17;16.63;;;;;;;5.37;54.48;102672.69;5053302;28;20474;-46
2022/01/22 04:04:35;;;;;;;20.37;17.60;;;;;;;5.37;54.88;102686.75;5030789;28;20431;-46
2022/01/22 04:09:50;;;;;;;22.17;15.60;;;;;;;5.38;54.15;102682.28;5046105;28;20501;-43
2022/01/22 04:12:24;;;;;;;24.47;18.30;;;;;;;5.34;56.48;102679.06;5053520;28;20456;-44
2022/01/22 04:14:57;;;;;;;16.47;14.73;;;;;;;5.35;54.84;102691.28;5053560;28;20445;-47
2022/01/22 04:24:47;;;;;;;26.53;16.03;;;;;;;5.27;58.21;102682.25;5053578;28;20483;-43
2022/01/22 04:25:51;;;;;;;17.07;15.20;;;;;;;5.25;56.01;102694.75;5053651;28;20438;-44
2022/01/22 04:28:19;;;;;;;20.93;15.00;;;;;;;5.25;55.35;102687.69;5052825;28;20826;-45
2022/01/22 04:30:47;;;;;;;26.43;15.77;;;;;;;5.25;54.43;102692.13;5053388;28;20438;-43
2022/01/22 04:33:14;;;;;;;17.97;16.07;;;;;;;5.24;54.52;102693.91;5053185;28;20463;-43
2022/01/22 04:35:44;;;;;;;20.37;15.60;;;;;;;5.26;54.01;102692.00;5053103;28;20428;-43
2022/01/22 04:38:12;;;;;;;20.30;14.67;;;;;;;5.29;54.08;102688.25;5052683;28;20463;-47
2022/01/22 04:40:40;;;;;;;18.70;14.87;;;;;;;5.32;52.28;102693.31;5053375;28;20436;-44
2022/01/22 04:43:08;;;;;;;23.30;14.93;;;;;;;5.30;53.27;102696.09;5053163;28;20451;-45
2022/01/22 04:45:49;;;;;;;19.47;15.03;;;;;;;5.30;54.46;102698.75;5053147;28;20432;-43
2022/01/22 04:48:28;;;;;;;19.00;15.77;;;;;;;5.33;53.58;102702.97;5052223;28;20823;-46
2022/01/22 04:56:27;;;;;;;28.73;15.57;;;;;;;5.33;52.48;102695.03;5052875;28;20800;-42
2022/01/22 04:58:55;;;;;;;20.20;15.67;;;;;;;5.28;55.25;102710.41;5052059;28;20839;-44
2022/01/22 05:01:22;;;;;;;21.13;14.50;;;;;;;5.23;55.76;102705.44;5052700;28;21275;-45
2022/01/22 05:03:50;;;;;;;15.90;14.23;;;;;;;5.19;55.65;102717.22;5052800;28;21103;-43
2022/01/22 05:06:19;;;;;;;15.20;13.60;;;;;;;5.18;52.64;102704.09;5052677;28;20442;-43
2022/01/22 05:08:47;;;;;;;18.90;13.83;;;;;;;5.16;51.80;102695.44;5052049;28;20468;-46
2022/01/22 05:11:15;;;;;;;23.00;14.40;;;;;;;5.12;52.75;102705.41;5052396;28;20458;-46
2022/01/22 05:13:43;;;;;;;22.47;13.87;;;;;;;5.15;50.05;102705.19;5052756;28;20439;-46
2022/01/22 05:16:10;;;;;;;20.43;13.83;;;;;;;5.14;49.42;102705.31;5052657;28;20672;-46
2022/01/22 05:18:46;;;;;;;21.93;13.50;;;;;;;5.10;50.09;102702.03;5051812;28;20491;-42
2022/01/22 05:21:16;;;;;;;16.03;14.43;;;;;;;5.12;50.71;102697.47;5052398;28;20840;-48
2022/01/22 05:23:46;;;;;;;21.03;13.70;;;;;;;5.14;52.05;102702.66;5052206;28;20441;-47
2022/01/22 05:26:40;;;;;;;23.20;13.40;;;;;;;5.16;51.42;102698.09;5052869;28;20424;-44
2022/01/22 05:29:22;;;;;;;21.73;14.03;;;;;;;5.11;53.31;102701.06;5051718;28;20477;-45
2022/01/22 05:37:37;;;;;;;13.63;12.33;;;;;;;5.04;41.95;102710.44;5009813;28;20819;-46
2022/01/22 05:40:08;;;;;;;15.83;13.80;;;;;;;5.01;38.63;102713.28;5009630;28;21005;-45
2022/01/22 05:42:36;;;;;;;16.17;13.70;;;;;;;5.01;37.23;102711.50;5028963;28;20458;-46
2022/01/22 05:45:05;;;;;;;15.77;13.20;;;;;;;4.98;37.99;102717.00;5052016;28;20442;-43
2022/01/22 05:47:33;;;;;;;16.97;12.97;;;;;;;4.92;37.76;102711.31;5051880;28;20439;-45
2022/01/22 05:50:05;;;;;;;18.10;13.87;;;;;;;4.90;34.87;102719.34;5051425;28;20467;-45
2022/01/22 05:52:38;;;;;;;16.17;12.47;;;;;;;4.95;32.95;102719.88;5051824;28;20447;-41
2022/01/22 05:55:27;;;;;;;16.93;12.90;;;;;;;4.94;31.65;102728.75;5051979;28;20443;-47
2022/01/22 06:00:39;;;;;;;15.63;14.03;;;;;;;4.88;32.50;102734.50;5051894;28;20439;-46
2022/01/22 06:03:08;;;;;;;19.73;13.00;;;;;;;4.84;32.97;102735.66;5051515;28;20551;-46
2022/01/22 06:05:36;;;;;;;14.00;12.90;;;;;;;4.83;33.01;102736.63;5051740;28;20481;-44
2022/01/22 06:08:04;;;;;;;13.70;12.30;;;;;;;4.83;31.59;102736.63;5051303;28;20446;-46
2022/01/22 06:10:34;;;;;;;16.00;13.33;;;;;;;4.87;29.39;102737.22;5051819;28;20441;-47
2022/01/22 06:13:12;;;;;;;14.90;13.20;;;;;;;4.87;28.69;102740.72;5051611;28;20452;-44
2022/01/22 06:15:40;;;;;;;20.53;12.30;;;;;;;4.88;29.97;102731.00;5051535;28;20431;-44
2022/01/22 06:18:08;;;;;;;15.40;13.77;;;;;;;4.91;28.79;102736.06;5050728;28;20497;-46
2022/01/22 06:20:35;;;;;;;16.67;13.87;;;;;;;4.91;30.19;102731.63;5051546;28;20435;-43
2022/01/22 06:23:04;;;;;;;16.27;13.20;;;;;;;4.95;31.74;102732.25;5051554;28;20447;-43
2022/01/22 06:25:31;;;;;;;14.07;12.83;;;;;;;5.01;32.68;102737.09;5051557;28;20432;-45
2022/01/22 06:28:01;;;;;;;14.23;13.00;;;;;;;5.05;34.27;102729.78;5050816;28;20442;-45
2022/01/22 06:30:29;;;;;;;13.37;12.37;;;;;;;5.03;34.86;102736.03;5051432;28;20431;-45
2022/01/22 06:32:57;;;;;;;12.93;11.83;;;;;;;5.14;34.29;102737.88;5051562;28;20450;-46
2022/01/22 06:35:25;;;;;;;20.83;12.87;;;;;;;5.20;33.77;102736.56;5051556;28;20431;-43
2022/01/22 06:37:52;;;;;;;13.73;12.43;;;;;;;5.21;35.86;102740.91;5050753;28;20442;-43
2022/01/22 06:43:07;;;;;;;13.10;11.80;;;;;;;5.11;43.90;102743.38;5050895;28;20944;-41
2022/01/22 06:45:35;;;;;;;25.10;12.67;;;;;;;5.02;48.49;102747.53;5051343;28;20446;-46
2022/01/22 06:48:02;;;;;;;15.80;12.83;;;;;;;4.98;46.89;102747.88;5049205;28;20467;-43
2022/01/22 06:50:30;;;;;;;15.13;12.00;;;;;;;4.95;45.82;102746.31;5051390;28;20431;-41
2022/01/22 06:52:58;;;;;;;12.50;11.30;;;;;;;4.96;43.60;102747.97;5051921;28;20458;-43
2022/01/22 06:55:36;;;;;;;12.27;10.93;;;;;;;4.92;37.93;102751.81;5055005;28;20427;-42
2022/01/22 06:58:04;;;;;;;13.17;11.80;;;;;;;4.93;37.51;102748.22;5054761;28;23244;-43
2022/01/22 07:00:33;;;;;;;12.30;11.20;;;;;;;4.93;33.96;102753.50;5055287;28;20435;-49
2022/01/22 07:03:01;;;;;;;12.70;11.43;;;;;;;4.92;33.27;102753.63;5050890;28;20509;-43
2022/01/22 07:05:30;;;;;;;12.47;11.37;;;;;;;4.95;30.54;102758.69;5053385;28;20435;-40
2022/01/22 07:07:58;;;;;;;13.30;12.03;;;;;;;4.96;29.29;102761.19;5052127;28;20474;-45
2022/01/22 07:10:25;;;;;;;13.77;12.40;;;;;;;4.98;29.08;102758.47;5053117;28;20431;-45
2022/01/22 07:12:53;;;;;;;18.20;13.53;;;;;;;4.96;30.33;102763.84;5052927;28;20447;-45
2022/01/22 07:15:21;;;;;;;20.37;12.90;;;;;;;4.95;30.29;102764.81;5053334;28;20885;-44
2022/01/22 07:17:50;;;;;;;15.50;13.90;;;;;;;4.98;28.64;102775.19;5052151;28;20438;-43
2022/01/22 07:20:25;;;;;;;18.07;12.80;;;;;;;5.01;28.04;102772.31;5052609;28;20836;-43
2022/01/22 07:22:59;;;;;;;19.73;13.10;;;;;;;5.03;29.73;102765.09;5052906;28;20846;-41
2022/01/22 07:25:28;;;;;;;15.77;14.03;;;;;;;5.03;31.00;102778.31;5053293;28;20422;-43
2022/01/22 07:27:56;;;;;;;14.40;13.13;;;;;;;5.03;32.29;102775.69;5053185;28;20467;-43
2022/01/22 07:30:25;;;;;;;15.33;13.60;;;;;;;5.03;33.18;102764.25;5052184;28;20428;-45
2022/01/22 07:32:54;;;;;;;16.93;13.70;;;;;;;5.07;32.11;102771.03;5051929;28;20447;-44
2022/01/22 07:35:22;;;;;;;16.93;14.73;;;;;;;5.07;33.51;102773.66;5052731;28;20435;-44
2022/01/22 07:37:50;;;;;;;13.17;11.83;;;;;;;5.08;32.90;102772.69;5052014;28;20480;-44
2022/01/22 07:40:18;;;;;;;15.57;12.50;;;;;;;5.07;33.08;102786.88;5052464;28;20475;-41
2022/01/22 07:42:45;;;;;;;18.10;11.80;;;;;;;5.12;30.82;102784.75;5052444;28;20469;-43
2022/01/22 07:45:13;;;;;;;15.63;12.07;;;;;;;5.17;29.91;102787.06;5052155;28;20436;-43
2022/01/22 07:47:41;;;;;;;19.33;12.93;;;;;;;5.19;30.10;102793.94;5051885;28;20965;-41
2022/01/22 07:50:10;;;;;;;16.17;14.33;;;;;;;5.14;31.56;102796.03;5052645;28;20474;-45
2022/01/22 07:52:38;;;;;;;15.27;12.20;;;;;;;5.12;31.95;102786.53;5054043;28;20828;-41
2022/01/22 07:55:07;;;;;;;12.10;11.20;;;;;;;5.10;33.04;102786.66;5054130;28;20435;-43
2022/01/22 07:57:35;;;;;;;20.73;12.87;;;;;;;5.07;33.84;102784.25;5053873;28;20502;-43
2022/01/22 08:00:06;;;;;;;16.20;11.00;;;;;;;5.09;30.82;102787.59;5053342;28;20846;-46
2022/01/22 08:02:33;;;;;;;15.53;11.90;;;;;;;5.07;33.16;102786.88;5051820;28;21006;-44
2022/01/22 08:05:01;;;;;;;16.60;11.50;;;;;;;5.10;31.94;102804.31;5049582;28;20443;-45
2022/01/22 08:07:31;;;;;;;12.70;11.60;;;;;;;5.06;32.92;102795.75;5052505;28;20420;-46
2022/01/22 08:09:59;;;;;;;11.57;10.70;;;;;;;5.10;33.80;102801.69;5051042;28;20452;-43
2022/01/22 08:12:27;;;;;;;11.83;10.83;;;;;;;5.13;33.91;102804.97;5051783;28;20820;-42
2022/01/22 08:14:54;;;;;;;11.70;10.80;;;;;;;5.18;32.71;102810.75;5052249;28;20438;-42
2022/01/22 08:17:22;;;;;;;15.70;11.00;;;;;;;5.18;34.79;102809.91;5051787;28;20510;-46
2022/01/22 08:19:49;;;;;;;15.70;10.90;;;;;;;5.20;36.03;102806.19;5051312;28;20485;-44
2022/01/22 08:22:17;;;;;;;12.87;11.50;;;;;;;5.26;35.16;102797.78;5051826;28;20448;-42
2022/01/22 08:24:46;;;;;;;12.07;11.20;;;;;;;5.29;34.73;102800.22;5051850;28;20817;-43
2022/01/22 08:27:20;;;;;;;11.23;10.13;;;;;;;5.28;35.82;102806.47;5051465;28;20518;-45
2022/01/22 08:29:48;;;;;;;12.87;11.63;;;;;;;5.30;37.23;102809.00;5051114;28;20863;-42
2022/01/22 08:32:33;;;;;;;13.60;10.80;;;;;;;5.34;37.79;102799.91;5051551;28;20452;-46
2022/01/22 08:37:46;;;;;;;12.87;11.90;;;;;;;5.39;39.21;102822.41;5031082;28;20436;-45
2022/01/22 08:40:15;;;;;;;12.37;11.17;;;;;;;5.40;39.38;102817.97;5031103;28;20476;-45
2022/01/22 08:42:45;;;;;;;12.40;11.40;;;;;;;5.40;40.71;102817.97;5031577;28;20462;-45
2022/01/22 08:45:13;;;;;;;12.60;10.70;;;;;;;5.45;42.01;102815.81;5043239;28;20439;-47
2022/01/22 08:47:40;;;;;;;12.63;10.47;;;;;;;5.47;45.39;102814.75;5050531;28;20430;-44
2022/01/22 08:50:09;;;;;;;9.93;9.10;;;;;;;5.47;49.65;102819.19;5049977;28;20455;-42
2022/01/22 08:52:36;;;;;;;9.70;8.80;;;;;;;5.48;49.35;102820.88;5051347;28;20447;-41
2022/01/22 08:55:05;;;;;;;9.90;8.90;;;;;;;5.54;49.16;102829.22;5051328;28;20448;-44
2022/01/22 08:57:34;;;;;;;16.07;9.83;;;;;;;5.55;55.29;102824.78;5051225;28;20574;-45
2022/01/22 09:00:03;;;;;;;8.20;7.50;;;;;;;5.61;54.57;102820.81;5050134;28;20489;-42
2022/01/22 09:02:31;;;;;;;9.83;9.07;;;;;;;5.62;55.29;102820.69;5050731;28;20827;-45
2022/01/22 09:04:58;;;;;;;9.50;8.60;;;;;;;5.69;55.82;102829.88;5051579;28;20443;-42
2022/01/22 09:07:26;;;;;;;8.40;7.87;;;;;;;5.86;55.11;102823.34;5051340;28;20534;-46
2022/01/22 09:09:54;;;;;;;9.57;8.63;;;;;;;5.85;63.54;102816.34;5050331;28;20463;-41
2022/01/22 09:12:22;;;;;;;9.10;8.37;;;;;;;5.92;63.94;102821.09;5051053;28;20830;-45
2022/01/22 09:14:51;;;;;;;9.00;8.50;;;;;;;5.90;66.68;102825.66;5050986;28;20812;-41
2022/01/22 09:17:19;;;;;;;9.33;8.80;;;;;;;5.90;69.37;102828.31;5050416;28;20435;-42
2022/01/22 09:19:57;;;;;;;10.57;9.60;;;;;;;5.97;71.51;102824.22;5050512;28;20548;-46
2022/01/22 09:22:25;;;;;;;9.50;9.00;;;;;;;5.84;73.29;102826.09;5050944;28;20455;-45
2022/01/22 09:24:53;;;;;;;10.17;9.53;;;;;;;5.88;70.55;102835.53;5051258;28;20857;-45
2022/01/22 09:27:22;;;;;;;10.97;9.87;;;;;;;5.83;73.34;102831.50;5050777;28;20424;-45
2022/01/22 09:29:51;;;;;;;9.93;9.20;;;;;;;5.85;71.86;102829.59;5050001;28;20979;-45
2022/01/22 09:32:19;;;;;;;11.03;10.03;;;;;;;5.94;70.93;102827.09;5050509;28;20962;-41
2022/01/22 09:34:48;;;;;;;11.13;10.00;;;;;;;6.02;70.52;102835.34;5050826;28;20435;-43
2022/01/22 09:37:15;;;;;;;9.80;9.00;;;;;;;6.04;72.40;102840.50;5050537;28;20435;-42
2022/01/22 09:39:43;;;;;;;10.27;9.37;;;;;;;5.96;73.24;102859.63;5049741;28;20467;-42
2022/01/22 09:42:11;;;;;;;10.67;9.90;;;;;;;6.00;71.10;102854.97;5050276;28;20463;-42
2022/01/22 09:44:41;;;;;;;9.87;9.07;;;;;;;5.99;71.16;102854.09;5050258;28;20436;-42
2022/01/22 09:47:12;;;;;;;10.97;9.97;;;;;;;6.06;71.16;102859.78;5050729;28;20430;-44
2022/01/22 09:49:39;;;;;;;9.17;8.60;;;;;;;6.12;71.68;102854.03;5050034;28;20467;-40
2022/01/22 09:52:07;;;;;;;10.83;9.90;;;;;;;6.17;70.18;102843.91;5050080;28;20558;-41
2022/01/22 09:54:35;;;;;;;11.43;10.33;;;;;;;6.18;72.32;102853.56;5050177;28;20474;-42
2022/01/22 09:57:04;;;;;;;13.10;10.10;;;;;;;6.18;74.17;102858.00;5050260;28;20427;-42
2022/01/22 09:59:33;;;;;;;13.43;10.20;;;;;;;6.17;73.95;102862.47;5050047;28;21151;-44
2022/01/22 10:02:10;;;;;;;10.40;9.70;;;;;;;6.18;73.25;102852.72;5049496;28;20490;-44
2022/01/22 10:04:40;;;;;;;11.37;9.67;;;;;;;6.19;73.90;102862.31;5050365;28;20529;-48
2022/01/22 10:07:17;;;;;;;12.10;9.87;;;;;;;6.21;73.31;102868.38;5050114;28;20510;-43
2022/01/22 10:09:59;;;;;;;9.90;9.00;;;;;;;6.22;74.22;102865.59;5049532;28;21000;-45
2022/01/22 10:12:29;;;;;;;10.87;9.70;;;;;;;6.26;73.70;102858.25;5049892;28;20538;-44
2022/01/22 10:15:08;;;;;;;9.97;9.07;;;;;;;6.30;72.91;102862.38;5050196;28;20434;-44
2022/01/22 10:17:42;;;;;;;9.53;8.90;;;;;;;6.32;73.59;102855.16;5049873;28;20947;-45
2022/01/22 10:20:31;;;;;;;8.40;8.00;;;;;;;6.43;71.64;102858.66;5049522;28;20435;-43
2022/01/22 10:23:01;;;;;;;8.60;8.00;;;;;;;6.48;73.89;102859.13;5049968;28;20923;-43
2022/01/22 10:25:34;;;;;;;8.20;7.67;;;;;;;6.52;75.05;102860.59;5049936;28;20435;-44
2022/01/22 10:28:04;;;;;;;7.50;7.17;;;;;;;6.48;77.99;102866.28;5051851;28;20438;-44
2022/01/22 10:30:37;;;;;;;8.20;7.77;;;;;;;6.43;76.77;102869.25;5053783;28;20803;-44
2022/01/22 10:33:23;;;;;;;7.80;7.30;;;;;;;6.45;79.90;102859.38;5053994;28;20455;-45
2022/01/22 10:35:51;;;;;;;7.67;7.47;;;;;;;6.40;80.19;102858.88;5054096;28;20789;-45
2022/01/22 10:38:21;;;;;;;7.40;7.00;;;;;;;6.47;79.55;102865.41;5053400;28;20466;-43
2022/01/22 10:40:50;;;;;;;6.80;6.60;;;;;;;6.34;80.73;102866.47;5053027;28;20859;-46
2022/01/22 10:43:25;;;;;;;7.30;7.10;;;;;;;6.32;78.96;102863.09;5053756;28;20467;-46
2022/01/22 10:46:11;;;;;;;7.40;7.10;;;;;;;6.22;75.59;102870.91;5053875;28;20438;-46
2022/01/22 10:48:43;;;;;;;7.83;7.50;;;;;;;6.27;73.21;102870.56;5053247;28;20466;-45
2022/01/22 10:51:13;;;;;;;6.80;6.70;;;;;;;6.28;72.00;102870.44;5053054;28;20427;-44
2022/01/22 10:53:46;;;;;;;7.10;6.83;;;;;;;6.36;71.68;102868.03;5053423;28;20940;-43
2022/01/22 10:56:17;;;;;;;7.10;6.80;;;;;;;6.35;73.64;102865.50;5053553;28;20925;-44
2022/01/22 10:58:54;;;;;;;6.70;6.50;;;;;;;6.38;74.87;102875.88;5053177;28;20820;-43
2022/01/22 11:01:23;;;;;;;7.43;7.13;;;;;;;6.37;76.75;102871.53;5052115;28;20486;-47
2022/01/22 11:04:11;;;;;;;7.30;7.00;;;;;;;6.39;76.81;102873.09;5053516;28;20445;-45
2022/01/22 11:06:40;;;;;;;7.33;7.03;;;;;;;6.44;77.41;102873.59;5054557;28;20416;-44
2022/01/22 11:09:08;;;;;;;6.60;6.40;;;;;;;6.43;78.49;102876.34;5050710;28;20462;-44
2022/01/22 11:11:39;;;;;;;7.20;6.90;;;;;;;6.47;77.03;102878.66;5051636;28;20466;-46
2022/01/22 11:14:09;;;;;;;7.50;7.30;;;;;;;6.40;78.28;102882.75;5053059;28;20438;-44
2022/01/22 11:16:38;;;;;;;7.37;7.17;;;;;;;6.39;78.72;102888.19;5053056;28;20530;-45
2022/01/22 11:19:18;;;;;;;7.60;7.30;;;;;;;6.40;79.76;102880.09;5053110;28;20852;-43
2022/01/22 11:21:48;;;;;;;7.87;7.47;;;;;;;6.33;82.06;102888.66;5053524;28;20483;-43
2022/01/22 11:24:19;;;;;;;7.67;7.47;;;;;;;6.20;82.70;102886.06;5054317;28;20439;-43
2022/01/22 11:26:51;;;;;;;8.17;7.77;;;;;;;6.22;75.33;102896.53;5054570;28;20431;-45
2022/01/22 11:29:21;;;;;;;8.40;7.83;;;;;;;6.23;76.09;102887.63;5053740;28;20467;-46
2022/01/22 11:31:51;;;;;;;8.10;7.70;;;;;;;6.25;77.14;102896.31;5051032;28;20470;-46
2022/01/22 11:34:24;;;;;;;7.90;7.60;;;;;;;6.25;78.98;102889.22;5052603;28;20937;-44
2022/01/22 11:36:58;;;;;;;7.37;7.10;;;;;;;6.26;77.56;102890.06;5052828;28;20920;-47
2022/01/22 11:39:26;;;;;;;7.63;7.30;;;;;;;6.45;76.06;102893.81;5051569;28;20459;-45
2022/01/22 11:42:00;;;;;;;8.20;7.80;;;;;;;6.54;78.66;102887.00;5052148;28;20495;-42
2022/01/22 11:44:32;;;;;;;7.70;7.10;;;;;;;6.49;84.80;102886.50;5052637;28;20435;-46
2022/01/22 11:47:09;;;;;;;7.60;7.10;;;;;;;6.46;87.35;102890.22;5051914;28;20437;-44
2022/01/22 11:49:39;;;;;;;8.10;7.80;;;;;;;6.44;88.82;102888.66;5052077;28;20472;-43
2022/01/22 11:52:25;;;;;;;7.60;7.10;;;;;;;6.45;87.85;102893.81;5052027;28;20457;-44
2022/01/22 11:54:55;;;;;;;7.30;7.00;;;;;;;6.49;88.79;102886.50;5052498;28;20447;-45
2022/01/22 11:57:23;;;;;;;7.03;6.73;;;;;;;6.57;90.07;102890.22;5052163;28;20435;-42
2022/01/22 12:00:17;;;;;;;6.53;6.20;;;;;;;6.55;92.62;102884.22;5051570;28;20460;-44
2022/01/22 12:02:45;;;;;;;6.50;6.10;;;;;;;6.42;92.08;102891.41;5051735;28;20471;-46
2022/01/22 12:05:14;;;;;;;6.70;6.20;;;;;;;6.42;90.06;102887.94;5052397;28;20436;-43
2022/01/22 12:07:57;;;;;;;6.40;6.20;;;;;;;6.41;88.93;102886.25;5051921;28;20929;-44
2022/01/22 12:10:38;;;;;;;6.47;6.07;;;;;;;6.27;91.61;102894.41;5051522;28;20444;-46
2022/01/22 12:16:15;;;;;;;6.27;6.07;;;;;;;6.42;91.43;102893.25;5039202;28;20805;-45
2022/01/22 12:18:51;;;;;;;6.00;5.60;;;;;;;6.49;93.22;102897.09;5051564;28;20467;-43
2022/01/22 12:21:35;;;;;;;6.27;5.97;;;;;;;6.49;94.09;102890.00;5051477;28;20481;-43
2022/01/22 12:24:06;;;;;;;5.83;5.63;;;;;;;6.48;94.30;102895.41;5051732;28;20458;-44
2022/01/22 12:26:53;;;;;;;6.00;5.90;;;;;;;6.52;94.65;102895.06;5051640;28;20447;-43
2022/01/22 12:29:35;;;;;;;6.10;5.90;;;;;;;6.66;94.46;102886.03;5050995;28;20470;-46
2022/01/22 12:32:24;;;;;;;6.00;5.80;;;;;;;6.78;94.77;102885.06;5051577;28;20439;-47
2022/01/22 12:34:58;;;;;;;6.50;6.10;;;;;;;6.83;96.48;102890.03;5051742;28;20436;-44
2022/01/22 12:37:29;;;;;;;6.27;6.07;;;;;;;6.89;96.72;102884.25;5051697;28;20462;-44
2022/01/22 12:39:57;;;;;;;6.33;6.13;;;;;;;6.88;97.31;102883.41;5050819;28;20469;-44
2022/01/22 12:42:52;;;;;;;6.73;6.43;;;;;;;6.79;97.71;102878.81;5051174;28;20840;-44
2022/01/22 12:45:22;;;;;;;6.63;6.40;;;;;;;6.77;97.73;102878.09;5043748;28;20419;-42